createdAt,value
2018-07-27T00:02:01.949Z,23.50
2018-07-27T00:04:31.200Z,23.60
2018-07-27T00:07:01.282Z,23.70
2018-07-27T00:09:30.716Z,23.70
2018-07-27T00:11:59.881Z,23.80
2018-07-27T00:14:29.457Z,23.80
2018-07-27T00:16:58.784Z,23.90
2018-07-27T00:19:28.079Z,23.90
2018-07-27T00:21:57.384Z,23.90
2018-07-27T00:24:26.638Z,23.90
2018-07-27T00:26:55.974Z,23.80
2018-07-27T00:29:25.280Z,23.80
2018-07-27T00:31:54.845Z,23.70
2018-07-27T00:34:24.131Z,23.70
2018-07-27T00:36:53.385Z,23.70
2018-07-27T00:39:22.589Z,23.70
2018-07-27T00:41:52.037Z,23.60
2018-07-27T00:44:21.281Z,23.50
2018-07-27T00:46:50.627Z,23.40
2018-07-27T00:49:19.879Z,23.30
2018-07-27T00:51:49.180Z,23.20
2018-07-27T00:54:18.471Z,23.10
2018-07-27T00:56:47.809Z,23.00
2018-07-27T00:59:17.088Z,22.90
2018-07-27T01:01:46.023Z,22.80
2018-07-27T01:04:14.972Z,22.80
2018-07-27T01:06:44.897Z,22.70
2018-07-27T01:09:13.863Z,22.70
2018-07-27T01:11:42.993Z,22.70
2018-07-27T01:14:12.022Z,22.60
2018-07-27T01:16:41.191Z,22.60
2018-07-27T01:19:10.260Z,22.60
2018-07-27T01:21:39.451Z,22.60
2018-07-27T01:24:08.626Z,22.50
2018-07-27T01:26:37.788Z,22.50
2018-07-27T01:29:06.908Z,22.40
2018-07-27T01:31:35.901Z,22.40
2018-07-27T01:34:04.861Z,22.40
2018-07-27T01:36:33.840Z,22.30
2018-07-27T01:39:03.051Z,22.30
2018-07-27T01:41:32.029Z,22.20
2018-07-27T01:44:00.978Z,22.20
2018-07-27T01:46:29.947Z,22.10
2018-07-27T01:48:58.892Z,22.10
2018-07-27T01:51:27.857Z,22.10
2018-07-27T01:53:56.904Z,22.10
2018-07-27T01:56:25.880Z,22.10
2018-07-27T01:58:54.836Z,22.10
2018-07-27T02:01:24.044Z,22.00
2018-07-27T02:03:53.209Z,22.00
2018-07-27T02:06:22.168Z,22.00
2018-07-27T02:08:51.303Z,21.90
2018-07-27T02:11:20.411Z,21.90
2018-07-27T02:13:49.300Z,21.90
2018-07-27T02:16:18.302Z,21.80
2018-07-27T02:18:47.468Z,21.80
2018-07-27T02:21:16.555Z,21.70
2018-07-27T02:23:45.516Z,21.70
2018-07-27T02:26:14.506Z,21.70
2018-07-27T02:28:43.422Z,21.60
2018-07-27T02:31:12.474Z,21.60
2018-07-27T02:33:41.709Z,21.60
2018-07-27T02:36:10.751Z,21.50
2018-07-27T02:38:39.741Z,21.50
2018-07-27T02:41:08.688Z,21.50
2018-07-27T02:43:37.833Z,21.60
2018-07-27T02:46:06.898Z,21.60
2018-07-27T02:48:36.058Z,21.60
2018-07-27T02:51:05.102Z,21.70
2018-07-27T02:53:34.115Z,21.70
2018-07-27T02:56:03.329Z,21.80
2018-07-27T02:58:32.452Z,21.80
2018-07-27T03:01:01.424Z,21.90
2018-07-27T03:03:30.436Z,21.90
2018-07-27T03:05:59.445Z,21.90
2018-07-27T03:08:28.567Z,21.90
2018-07-27T03:10:57.655Z,21.80
2018-07-27T03:13:26.873Z,21.80
2018-07-27T03:15:55.854Z,21.80
2018-07-27T03:18:24.860Z,21.70
2018-07-27T03:20:54.218Z,21.70
2018-07-27T03:23:23.389Z,21.70
2018-07-27T03:25:52.341Z,21.60
2018-07-27T03:28:21.327Z,21.60
2018-07-27T03:30:51.159Z,21.50
2018-07-27T03:33:20.160Z,21.40
2018-07-27T03:35:49.211Z,21.30
2018-07-27T03:38:18.208Z,21.30
2018-07-27T03:40:47.187Z,21.30
2018-07-27T03:43:16.164Z,21.20
2018-07-27T03:45:45.133Z,21.20
2018-07-27T03:48:14.333Z,21.10
2018-07-27T03:50:43.331Z,21.10
2018-07-27T03:53:12.649Z,21.20
2018-07-27T03:55:41.579Z,21.20
2018-07-27T03:58:11.373Z,21.10
2018-07-27T04:00:40.396Z,21.10
2018-07-27T04:03:09.419Z,21.00
2018-07-27T04:05:38.583Z,20.90
2018-07-27T04:08:07.615Z,20.90
2018-07-27T04:10:37.399Z,20.90
2018-07-27T04:13:06.369Z,21.00
2018-07-27T04:15:35.333Z,20.90
2018-07-27T04:18:04.513Z,20.90
2018-07-27T04:20:33.489Z,20.90
2018-07-27T04:23:02.496Z,20.80
2018-07-27T04:25:31.459Z,20.80
2018-07-27T04:28:00.433Z,20.80
2018-07-27T04:30:29.311Z,20.80
2018-07-27T04:32:58.281Z,20.80
2018-07-27T04:35:27.265Z,20.80
2018-07-27T04:37:56.568Z,20.80
2018-07-27T04:40:25.674Z,20.80
2018-07-27T04:42:54.639Z,20.80
2018-07-27T04:45:23.693Z,20.80
2018-07-27T04:47:52.774Z,20.80
2018-07-27T04:50:21.946Z,20.70
2018-07-27T04:52:50.984Z,20.80
2018-07-27T04:55:20.928Z,20.80
2018-07-27T04:57:49.994Z,20.80
2018-07-27T05:00:19.032Z,20.80
2018-07-27T05:02:48.145Z,20.90
2018-07-27T05:05:17.454Z,20.90
2018-07-27T05:07:46.439Z,20.90
2018-07-27T05:10:20.735Z,20.90
2018-07-27T05:12:49.873Z,21.00
2018-07-27T05:15:18.913Z,21.00
2018-07-27T05:17:47.818Z,21.00
2018-07-27T05:20:16.919Z,21.00
2018-07-27T05:22:45.872Z,21.10
2018-07-27T05:25:14.963Z,21.10
2018-07-27T05:27:44.095Z,21.10
2018-07-27T05:30:13.092Z,21.20
2018-07-27T05:32:42.247Z,21.30
2018-07-27T05:35:11.419Z,21.30
2018-07-27T05:37:40.368Z,21.30
2018-07-27T05:40:09.616Z,21.40
2018-07-27T05:42:38.557Z,21.40
2018-07-27T05:45:07.790Z,21.40
2018-07-27T05:47:37.072Z,21.40
2018-07-27T05:50:06.692Z,21.40
2018-07-27T05:52:35.664Z,21.50
2018-07-27T05:55:04.770Z,21.60
2018-07-27T05:57:34.119Z,21.70
2018-07-27T06:00:03.227Z,21.70
2018-07-27T06:02:32.209Z,21.80
2018-07-27T06:05:02.014Z,21.90
2018-07-27T06:07:31.201Z,21.90
2018-07-27T06:10:00.314Z,21.90
2018-07-27T06:12:29.538Z,21.90
2018-07-27T06:14:58.797Z,21.90
2018-07-27T06:17:28.044Z,22.00
2018-07-27T06:19:57.219Z,22.00
2018-07-27T06:22:26.192Z,22.10
2018-07-27T06:24:55.912Z,22.10
2018-07-27T06:27:24.885Z,22.10
2018-07-27T06:29:54.184Z,22.10
2018-07-27T06:32:23.407Z,22.20
2018-07-27T06:34:52.604Z,22.20
2018-07-27T06:37:21.817Z,22.30
2018-07-27T06:39:51.117Z,22.30
2018-07-27T06:42:20.171Z,22.30
2018-07-27T06:44:49.216Z,22.40
2018-07-27T06:47:18.425Z,22.40
2018-07-27T06:49:47.455Z,22.40
2018-07-27T06:52:16.499Z,22.40
2018-07-27T06:54:45.522Z,22.50
2018-07-27T06:57:14.556Z,22.60
2018-07-27T06:59:43.690Z,22.70
2018-07-27T07:02:12.831Z,22.80
2018-07-27T07:04:42.034Z,22.90
2018-07-27T07:07:11.220Z,23.00
2018-07-27T07:09:40.130Z,23.10
2018-07-27T07:14:37.852Z,23.30
2018-07-27T07:17:07.343Z,23.40
2018-07-27T07:19:36.563Z,23.60
2018-07-27T07:22:05.561Z,23.70
2018-07-27T07:24:34.567Z,23.80
2018-07-27T07:27:04.007Z,23.90
2018-07-27T07:29:34.143Z,24.00
2018-07-27T07:32:03.499Z,24.00
2018-07-27T07:34:32.744Z,24.10
2018-07-27T07:37:02.273Z,24.20
2018-07-27T07:39:31.512Z,24.40
2018-07-27T07:42:00.670Z,24.50
2018-07-27T07:44:29.771Z,24.70
2018-07-27T07:46:58.955Z,25.00
2018-07-27T07:49:28.032Z,25.20
2018-07-27T07:51:57.255Z,25.40
2018-07-27T07:54:26.398Z,25.50
2018-07-27T07:56:56.258Z,25.80
2018-07-27T07:59:25.650Z,25.90
2018-07-27T08:01:55.120Z,26.10
2018-07-27T08:04:24.466Z,26.20
2018-07-27T08:06:53.748Z,26.20
2018-07-27T08:09:23.120Z,26.20
2018-07-27T08:12:02.012Z,26.30
2018-07-27T08:14:31.874Z,26.40
2018-07-27T08:17:01.050Z,26.70
2018-07-27T08:19:30.125Z,26.90
2018-07-27T08:21:59.452Z,27.00
2018-07-27T08:24:28.539Z,27.10
2018-07-27T08:27:02.792Z,27.20
2018-07-27T08:29:34.639Z,27.30
2018-07-27T08:32:04.317Z,27.50
2018-07-27T08:34:33.686Z,27.70
2018-07-27T08:37:03.031Z,27.80
2018-07-27T08:39:33.460Z,27.90
2018-07-27T08:42:02.721Z,28.00
2018-07-27T08:44:33.189Z,28.00
2018-07-27T08:47:02.577Z,28.20
2018-07-27T08:49:32.107Z,28.30
2018-07-27T08:52:01.575Z,28.50
2018-07-27T08:54:31.166Z,28.70
2018-07-27T08:57:00.765Z,28.70
2018-07-27T08:59:29.957Z,29.00
2018-07-27T09:01:59.428Z,29.10
2018-07-27T09:04:29.054Z,29.20
2018-07-27T09:06:59.155Z,29.40
2018-07-27T09:09:28.753Z,29.50
2018-07-27T09:11:58.452Z,29.50
2018-07-27T09:14:27.826Z,29.70
2018-07-27T09:16:57.293Z,30.00
2018-07-27T09:19:26.669Z,30.10
2018-07-27T09:21:56.147Z,30.20
2018-07-27T09:24:25.628Z,30.20
2018-07-27T09:26:54.640Z,30.30
2018-07-27T09:29:24.221Z,30.40
2018-07-27T09:31:53.803Z,30.60
2018-07-27T09:34:23.420Z,30.80
2018-07-27T09:36:53.012Z,30.90
2018-07-27T09:39:22.507Z,31.10
2018-07-27T09:41:51.880Z,31.40
2018-07-27T09:44:21.213Z,31.60
2018-07-27T09:46:50.793Z,31.90
2018-07-27T09:51:49.179Z,32.40
2018-07-27T09:54:18.665Z,32.60
2018-07-27T09:56:48.185Z,32.80
2018-07-27T09:59:17.344Z,33.00
2018-07-27T10:01:46.409Z,33.30
2018-07-27T10:04:15.700Z,33.40
2018-07-27T10:06:45.096Z,33.70
2018-07-27T10:09:14.391Z,33.90
2018-07-27T10:11:43.938Z,34.10
2018-07-27T10:14:13.142Z,34.40
2018-07-27T10:16:42.312Z,34.60
2018-07-27T10:19:11.760Z,34.90
2018-07-27T10:21:40.963Z,35.10
2018-07-27T10:24:10.521Z,35.20
2018-07-27T10:26:41.037Z,35.70
2018-07-27T10:29:10.356Z,36.00
2018-07-27T10:31:39.726Z,36.30
2018-07-27T10:34:08.878Z,36.50
2018-07-27T10:36:38.083Z,36.70
2018-07-27T10:39:10.261Z,36.60
2018-07-27T10:41:39.567Z,36.60
2018-07-27T10:44:08.930Z,36.70
2018-07-27T10:46:38.211Z,36.80
2018-07-27T10:49:07.527Z,37.00
2018-07-27T10:51:36.989Z,37.00
2018-07-27T10:54:06.830Z,37.30
2018-07-27T10:56:36.232Z,37.50
2018-07-27T10:59:05.478Z,37.50
2018-07-27T11:01:34.665Z,37.60
2018-07-27T11:04:04.121Z,37.50
2018-07-27T11:06:33.379Z,37.60
2018-07-27T11:09:02.687Z,37.70
2018-07-27T11:11:31.932Z,37.80
2018-07-27T11:14:01.889Z,38.00
2018-07-27T11:16:31.221Z,38.10
2018-07-27T11:19:01.475Z,38.20
2018-07-27T11:21:31.029Z,38.20
2018-07-27T11:24:00.326Z,38.30
2018-07-27T11:26:29.607Z,38.30
2018-07-27T11:28:58.998Z,38.20
2018-07-27T11:31:28.445Z,38.30
2018-07-27T11:33:57.584Z,38.40
2018-07-27T11:36:27.046Z,38.60
2018-07-27T11:38:56.636Z,38.70
2018-07-27T11:41:25.926Z,38.90
2018-07-27T11:43:55.180Z,39.40
2018-07-27T11:46:24.321Z,39.50
2018-07-27T11:48:53.862Z,39.80
2018-07-27T11:51:23.390Z,40.00
2018-07-27T11:53:52.773Z,40.20
2018-07-27T11:56:22.858Z,40.40
2018-07-27T11:58:52.342Z,40.70
2018-07-27T12:01:21.831Z,40.80
2018-07-27T12:03:51.496Z,40.90
2018-07-27T12:08:49.611Z,41.40
2018-07-27T12:11:18.806Z,41.70
2018-07-27T12:13:48.129Z,41.40
2018-07-27T12:16:17.249Z,41.70
2018-07-27T12:18:46.511Z,42.20
2018-07-27T12:21:15.957Z,42.20
2018-07-27T12:23:45.056Z,42.60
2018-07-27T12:26:14.459Z,42.60
2018-07-27T12:28:43.623Z,42.90
2018-07-27T12:31:12.770Z,42.50
2018-07-27T12:33:42.066Z,42.40
2018-07-27T12:36:11.469Z,42.60
2018-07-27T12:38:40.640Z,42.90
2018-07-27T12:41:10.101Z,42.90
2018-07-27T12:43:39.139Z,43.30
2018-07-27T12:46:08.276Z,43.80
2018-07-27T12:48:37.309Z,43.90
2018-07-27T12:51:06.523Z,44.40
2018-07-27T12:53:35.812Z,44.60
2018-07-27T12:56:05.087Z,45.00
2018-07-27T12:58:34.189Z,44.10
2018-07-27T13:01:03.751Z,43.50
2018-07-27T13:03:32.926Z,43.60
2018-07-27T13:06:02.131Z,43.80
2018-07-27T13:08:31.534Z,44.30
2018-07-27T13:11:01.076Z,44.90
2018-07-27T13:13:30.602Z,45.10
2018-07-27T13:16:00.066Z,45.50
2018-07-27T13:18:29.201Z,45.80
2018-07-27T13:21:01.819Z,46.20
2018-07-27T13:23:31.279Z,46.70
2018-07-27T13:26:25.797Z,46.50
2018-07-27T13:28:40.896Z,46.00
2018-07-27T13:31:11.202Z,45.60
2018-07-27T13:33:49.616Z,46.10
2018-07-27T13:36:19.018Z,46.80
2018-07-27T13:38:48.162Z,47.30
2018-07-27T13:41:17.137Z,47.90
2018-07-27T13:43:46.557Z,48.60
2018-07-27T13:46:16.078Z,48.80
2018-07-27T13:48:46.137Z,49.10
2018-07-27T13:51:15.313Z,48.10
2018-07-27T13:53:44.591Z,47.70
2018-07-27T13:56:13.948Z,47.50
2018-07-27T13:58:43.556Z,47.60
2018-07-27T14:01:12.939Z,47.90
2018-07-27T14:03:41.996Z,48.40
2018-07-27T14:06:11.371Z,49.10
2018-07-27T14:08:40.992Z,49.30
2018-07-27T14:11:10.332Z,48.70
2018-07-27T14:16:08.426Z,48.80
2018-07-27T14:18:37.682Z,49.30
2018-07-27T14:21:07.031Z,49.70
2018-07-27T14:23:36.243Z,50.20
2018-07-27T14:26:05.478Z,50.50
2018-07-27T14:28:34.750Z,50.80
2018-07-27T14:31:04.101Z,51.00
2018-07-27T14:33:33.148Z,51.00
2018-07-27T14:36:02.204Z,50.70
2018-07-27T14:38:31.267Z,50.50
2018-07-27T14:41:00.446Z,50.50
2018-07-27T14:43:29.505Z,51.20
2018-07-27T14:45:58.653Z,51.20
2018-07-27T14:48:27.707Z,51.00
2018-07-27T14:50:57.038Z,51.40
2018-07-27T14:53:26.286Z,51.20
2018-07-27T14:55:55.471Z,51.10
2018-07-27T14:58:24.810Z,51.30
2018-07-27T15:00:54.325Z,51.70
2018-07-27T15:03:23.639Z,52.00
2018-07-27T15:05:53.081Z,50.90
2018-07-27T15:08:22.486Z,50.50
2018-07-27T15:10:51.761Z,50.10
2018-07-27T15:13:21.063Z,49.90
2018-07-27T15:15:50.290Z,49.50
2018-07-27T15:18:20.410Z,49.00
2018-07-27T15:20:49.810Z,49.60
2018-07-27T15:23:19.076Z,49.60
2018-07-27T15:25:48.931Z,49.20
2018-07-27T15:28:18.268Z,49.00
2018-07-27T15:30:47.709Z,48.80
2018-07-27T15:33:16.698Z,49.50
2018-07-27T15:35:45.799Z,49.90
2018-07-27T15:38:14.816Z,50.00
2018-07-27T15:40:43.947Z,50.00
2018-07-27T15:43:13.085Z,50.30
2018-07-27T15:45:42.038Z,50.50
2018-07-27T15:48:11.266Z,51.10
2018-07-27T15:50:40.390Z,51.30
2018-07-27T15:53:09.411Z,51.20
2018-07-27T15:55:38.388Z,51.00
2018-07-27T15:58:07.569Z,51.00
2018-07-27T16:00:42.876Z,50.50
2018-07-27T16:03:11.995Z,50.60
2018-07-27T16:05:40.941Z,50.80
2018-07-27T16:08:09.985Z,51.20
2018-07-27T16:10:39.066Z,51.00
2018-07-27T16:13:08.131Z,50.80
2018-07-27T16:15:37.077Z,50.30
2018-07-27T16:18:06.144Z,50.50
2018-07-27T16:20:35.171Z,50.40
2018-07-27T16:23:04.409Z,49.90
2018-07-27T16:25:33.355Z,49.70
2018-07-27T16:28:02.509Z,50.00
2018-07-27T16:30:31.490Z,50.20
2018-07-27T16:33:00.783Z,50.20
2018-07-27T16:35:29.844Z,50.20
2018-07-27T16:37:59.060Z,49.70
2018-07-27T16:40:28.251Z,49.90
2018-07-27T16:42:57.231Z,50.00
2018-07-27T16:45:26.307Z,49.70
2018-07-27T16:47:55.309Z,49.70
2018-07-27T16:50:24.764Z,49.00
2018-07-27T16:52:53.898Z,48.10
2018-07-27T16:55:22.823Z,46.70
2018-07-27T16:57:51.943Z,45.30
2018-07-27T17:00:20.959Z,43.90
2018-07-27T17:02:50.600Z,42.70
2018-07-27T17:05:19.572Z,41.70
2018-07-27T17:07:48.674Z,41.00
2018-07-27T17:10:17.721Z,40.60
2018-07-27T17:12:46.820Z,40.50
2018-07-27T17:15:15.828Z,40.40
2018-07-27T17:17:44.810Z,40.10
2018-07-27T17:20:13.909Z,39.70
2018-07-27T17:22:43.014Z,39.30
2018-07-27T17:25:12.108Z,39.00
2018-07-27T17:27:41.267Z,38.60
2018-07-27T17:30:10.229Z,38.30
2018-07-27T17:32:39.322Z,38.00
2018-07-27T17:35:08.558Z,37.80
2018-07-27T17:37:37.988Z,37.60
2018-07-27T17:40:08.078Z,37.30
2018-07-27T17:42:40.022Z,37.10
2018-07-27T17:45:09.692Z,37.00
2018-07-27T17:47:39.170Z,36.90
2018-07-27T17:50:08.142Z,36.80
2018-07-27T17:52:37.112Z,36.70
2018-07-27T17:55:06.157Z,36.60
2018-07-27T17:57:35.157Z,36.30
2018-07-27T18:00:04.477Z,36.10
2018-07-27T18:02:33.473Z,35.90
2018-07-27T18:05:02.413Z,35.80
2018-07-27T18:07:31.660Z,36.00
2018-07-27T18:10:00.686Z,36.20
2018-07-27T18:12:29.789Z,36.20
2018-07-27T18:14:58.933Z,35.90
2018-07-27T18:17:27.989Z,35.60
2018-07-27T18:19:57.146Z,35.30
2018-07-27T18:22:26.189Z,35.10
2018-07-27T18:24:55.186Z,34.90
2018-07-27T18:27:30.900Z,34.70
2018-07-27T18:30:00.108Z,34.60
2018-07-27T18:32:29.145Z,34.40
2018-07-27T18:34:58.943Z,34.30
2018-07-27T18:37:27.940Z,34.20
2018-07-27T18:39:57.101Z,34.00
2018-07-27T18:42:26.112Z,33.90
2018-07-27T18:44:55.241Z,33.80
2018-07-27T18:47:24.348Z,33.70
2018-07-27T18:49:53.411Z,33.60
2018-07-27T18:52:22.485Z,33.50
2018-07-27T18:54:51.451Z,33.40
2018-07-27T18:57:21.281Z,33.30
2018-07-27T18:59:50.271Z,33.20
2018-07-27T19:02:19.237Z,33.10
2018-07-27T19:04:48.418Z,33.00
2018-07-27T19:07:17.498Z,32.90
2018-07-27T19:09:46.447Z,32.80
2018-07-27T19:12:15.413Z,32.70
2018-07-27T19:14:44.532Z,32.60
2018-07-27T19:17:13.546Z,32.50
2018-07-27T19:19:42.768Z,32.30
2018-07-27T19:22:11.746Z,32.20
2018-07-27T19:24:40.765Z,32.10
2018-07-27T19:27:09.788Z,32.00
2018-07-27T19:29:38.947Z,31.90
2018-07-27T19:32:08.013Z,31.70
2018-07-27T19:34:37.105Z,31.50
2018-07-27T19:37:06.261Z,31.40
2018-07-27T19:39:35.212Z,31.20
2018-07-27T19:42:04.422Z,31.10
2018-07-27T19:44:33.509Z,30.90
2018-07-27T19:47:02.456Z,30.80
2018-07-27T19:49:31.492Z,30.70
2018-07-27T19:52:00.560Z,30.60
2018-07-27T19:54:29.746Z,30.50
2018-07-27T19:56:58.711Z,30.40
2018-07-27T19:59:27.863Z,30.30
2018-07-27T20:01:56.864Z,30.30
2018-07-27T20:04:26.036Z,30.30
2018-07-27T20:06:55.163Z,30.20
2018-07-27T20:09:24.092Z,30.10
2018-07-27T20:11:53.099Z,30.10
2018-07-27T20:14:22.199Z,30.10
2018-07-27T20:16:51.325Z,30.00
2018-07-27T20:19:20.440Z,30.00
2018-07-27T20:21:49.418Z,30.00
2018-07-27T20:24:18.552Z,30.00
2018-07-27T20:26:47.513Z,29.90
2018-07-27T20:29:16.506Z,29.90
2018-07-27T20:31:45.527Z,29.80
2018-07-27T20:34:14.474Z,29.80
2018-07-27T20:36:43.485Z,29.70
2018-07-27T20:39:13.898Z,29.70
2018-07-27T20:41:44.032Z,29.60
2018-07-27T20:44:13.191Z,29.60
2018-07-27T20:46:42.212Z,29.50
2018-07-27T20:49:11.335Z,29.50
2018-07-27T20:51:40.518Z,29.40
2018-07-27T20:54:10.202Z,29.40
2018-07-27T20:56:39.252Z,29.40
2018-07-27T20:59:08.406Z,29.30
2018-07-27T21:01:37.412Z,29.20
2018-07-27T21:04:06.629Z,29.10
2018-07-27T21:06:35.702Z,29.00
2018-07-27T21:09:06.369Z,29.00
2018-07-27T21:11:35.471Z,28.90
2018-07-27T21:14:04.433Z,28.90
2018-07-27T21:16:33.489Z,28.80
2018-07-27T21:19:02.593Z,28.80
2018-07-27T21:21:31.783Z,28.70
2018-07-27T21:24:00.725Z,28.70
2018-07-27T21:26:29.716Z,28.70
2018-07-27T21:28:58.817Z,28.60
2018-07-27T21:31:27.831Z,28.60
2018-07-27T21:33:56.793Z,28.50
2018-07-27T21:36:25.887Z,28.50
2018-07-27T21:38:54.915Z,28.50
2018-07-27T21:41:24.042Z,28.40
2018-07-27T21:43:53.075Z,28.40
2018-07-27T21:46:22.163Z,28.30
2018-07-27T21:48:51.083Z,28.30
2018-07-27T21:51:20.145Z,28.20
2018-07-27T21:53:49.251Z,28.00
2018-07-27T21:56:18.360Z,27.90
2018-07-27T21:58:47.350Z,27.80
2018-07-27T22:01:16.316Z,27.70
2018-07-27T22:03:45.421Z,27.60
2018-07-27T22:06:14.555Z,27.50
2018-07-27T22:08:43.633Z,27.40
2018-07-27T22:11:12.645Z,27.40
2018-07-27T22:13:44.581Z,27.30
2018-07-27T22:16:13.680Z,27.20
2018-07-27T22:18:42.696Z,27.10
2018-07-27T22:21:12.112Z,27.00
2018-07-27T22:23:41.103Z,27.00
2018-07-27T22:26:10.062Z,26.90
2018-07-27T22:28:38.997Z,26.90
2018-07-27T22:31:08.160Z,26.90
2018-07-27T22:33:37.114Z,26.90
2018-07-27T22:36:06.125Z,26.80
2018-07-27T22:38:35.092Z,26.90
2018-07-27T22:41:04.096Z,26.80
2018-07-27T22:43:33.088Z,26.90
2018-07-27T22:46:02.052Z,26.90
2018-07-27T22:48:31.025Z,26.80
2018-07-27T22:51:00.109Z,26.80
2018-07-27T22:53:29.241Z,26.80
2018-07-27T22:55:58.207Z,26.80
2018-07-27T22:58:27.395Z,26.70
2018-07-27T23:00:56.450Z,26.60
2018-07-27T23:03:25.571Z,26.60
2018-07-27T23:05:54.528Z,26.60
2018-07-27T23:08:23.521Z,26.60
2018-07-27T23:10:52.352Z,26.60
2018-07-27T23:13:21.559Z,26.60
2018-07-27T23:15:50.515Z,26.50
2018-07-27T23:18:19.508Z,26.50
2018-07-27T23:20:48.663Z,26.50
2018-07-27T23:23:17.617Z,26.50
2018-07-27T23:25:46.566Z,26.50
2018-07-27T23:28:15.564Z,26.50
2018-07-27T23:30:44.548Z,26.50
2018-07-27T23:33:13.546Z,26.40
2018-07-27T23:35:42.541Z,26.40
2018-07-27T23:38:11.580Z,26.40
2018-07-27T23:40:41.345Z,26.40
2018-07-27T23:43:10.428Z,26.30
2018-07-27T23:45:39.541Z,26.20
2018-07-27T23:48:08.534Z,26.20
2018-07-27T23:50:37.517Z,26.10
2018-07-27T23:53:06.908Z,26.10
2018-07-27T23:55:35.936Z,26.10
2018-07-27T23:58:04.944Z,26.00
